createdAt,value
2019-04-01T00:00:39.762Z,24.80
2019-04-01T00:03:11.703Z,27.82
2019-04-01T00:05:43.003Z,24.05
2019-04-01T00:08:14.239Z,22.73
2019-04-01T00:10:46.691Z,23.98
2019-04-01T00:13:19.890Z,24.80
2019-04-01T00:15:51.440Z,24.57
2019-04-01T00:18:22.685Z,27.20
2019-04-01T00:20:53.925Z,26.15
2019-04-01T00:23:25.353Z,23.02
2019-04-01T00:25:56.657Z,25.43
2019-04-01T00:28:27.995Z,23.38
2019-04-01T00:30:59.304Z,24.52
2019-04-01T00:33:30.545Z,21.13
2019-04-01T00:36:01.789Z,23.25
2019-04-01T00:38:33.076Z,22.87
2019-04-01T00:41:04.567Z,19.70
2019-04-01T00:43:38.452Z,24.75
2019-04-01T00:46:11.375Z,25.43
2019-04-01T00:48:42.627Z,22.67
2019-04-01T00:51:15.832Z,25.50
2019-04-01T00:53:47.165Z,24.00
2019-04-01T00:56:18.472Z,22.00
2019-04-01T00:58:49.714Z,25.20
2019-04-01T01:01:21.017Z,22.15
2019-04-01T01:03:53.324Z,27.10
2019-04-01T01:06:24.641Z,26.97
2019-04-01T01:08:56.031Z,26.90
2019-04-01T01:11:27.413Z,24.20
2019-04-01T01:13:58.750Z,25.35
2019-04-01T01:16:30.123Z,25.43
2019-04-01T01:19:02.392Z,23.75
2019-04-01T01:21:35.175Z,26.47
2019-04-01T01:24:07.721Z,27.48
2019-04-01T01:26:38.953Z,23.93
2019-04-01T01:29:10.496Z,25.00
2019-04-01T01:31:41.878Z,25.00
2019-04-01T01:34:13.386Z,29.30
2019-04-01T01:36:44.631Z,30.30
2019-04-01T01:39:16.059Z,31.68
2019-04-01T01:41:47.364Z,29.80
2019-04-01T01:44:18.734Z,26.87
2019-04-01T01:46:50.055Z,29.23
2019-04-01T01:49:21.386Z,28.83
2019-04-01T01:51:52.690Z,29.43
2019-04-01T01:54:25.594Z,28.90
2019-04-01T01:56:58.055Z,30.07
2019-04-01T01:59:30.486Z,34.47
2019-04-01T02:02:01.785Z,28.77
2019-04-01T02:04:33.132Z,31.63
2019-04-01T02:07:04.442Z,26.50
2019-04-01T02:09:35.829Z,28.57
2019-04-01T02:12:07.064Z,31.10
2019-04-01T02:14:38.335Z,33.18
2019-04-01T02:17:09.579Z,31.50
2019-04-01T02:19:40.943Z,34.00
2019-04-01T02:22:12.256Z,36.60
2019-04-01T02:24:43.572Z,33.70
2019-04-01T02:27:14.880Z,33.13
2019-04-01T02:29:46.228Z,37.13
2019-04-01T02:32:17.468Z,37.17
2019-04-01T02:34:48.770Z,35.48
2019-04-01T02:37:20.051Z,31.13
2019-04-01T02:39:51.534Z,33.43
2019-04-01T02:42:22.856Z,34.80
2019-04-01T02:44:54.156Z,35.87
2019-04-01T02:47:25.467Z,34.40
2019-04-01T02:49:56.768Z,33.70
2019-04-01T02:52:28.114Z,34.40
2019-04-01T02:54:59.417Z,36.58
2019-04-01T02:57:30.729Z,39.10
2019-04-01T03:00:02.096Z,32.65
2019-04-01T03:02:35.043Z,33.10
2019-04-01T03:05:09.975Z,38.90
2019-04-01T03:07:41.275Z,36.97
2019-04-01T03:10:12.822Z,34.13
2019-04-01T03:12:44.202Z,35.57
2019-04-01T03:15:16.835Z,36.10
2019-04-01T03:17:48.226Z,31.60
2019-04-01T03:20:19.580Z,34.77
2019-04-01T03:22:50.823Z,35.37
2019-04-01T03:25:22.225Z,38.23
2019-04-01T03:27:53.480Z,38.60
2019-04-01T03:30:26.896Z,39.07
2019-04-01T03:32:58.203Z,36.77
2019-04-01T03:35:29.689Z,35.23
2019-04-01T03:38:01.124Z,35.33
2019-04-01T03:40:32.431Z,38.10
2019-04-01T03:43:05.539Z,37.90
2019-04-01T03:45:36.908Z,36.53
2019-04-01T03:48:08.250Z,42.17
2019-04-01T03:50:39.632Z,36.23
2019-04-01T03:53:10.944Z,34.57
2019-04-01T03:55:42.415Z,35.37
2019-04-01T03:58:13.829Z,35.27
2019-04-01T04:00:45.195Z,37.70
2019-04-01T04:03:16.490Z,35.63
2019-04-01T04:05:47.844Z,36.30
2019-04-01T04:08:19.167Z,38.47
2019-04-01T04:10:50.472Z,37.87
2019-04-01T04:13:21.809Z,34.00
2019-04-01T04:15:53.308Z,39.10
2019-04-01T04:18:24.574Z,40.50
2019-04-01T04:20:56.014Z,37.23
2019-04-01T04:23:27.444Z,39.53
2019-04-01T04:25:58.798Z,38.83
2019-04-01T04:28:30.110Z,38.80
2019-04-01T04:31:01.550Z,37.67
2019-04-01T04:33:32.786Z,38.37
2019-04-01T04:36:04.285Z,39.80
2019-04-01T04:38:35.716Z,35.53
2019-04-01T04:41:07.154Z,36.93
2019-04-01T04:43:38.573Z,35.77
2019-04-01T04:46:09.957Z,36.30
2019-04-01T04:48:41.198Z,37.83
2019-04-01T04:51:12.571Z,37.60
2019-04-01T04:53:43.873Z,39.33
2019-04-01T04:56:15.258Z,33.50
2019-04-01T04:58:46.566Z,36.40
2019-04-01T05:01:18.022Z,37.50
2019-04-01T05:03:49.353Z,35.00
2019-04-01T05:06:21.392Z,36.13
2019-04-01T05:08:52.693Z,32.53
2019-04-01T05:11:24.339Z,31.63
2019-04-01T05:13:57.333Z,34.53
2019-04-01T05:16:28.695Z,31.33
2019-04-01T05:19:00.004Z,37.77
2019-04-01T05:21:32.090Z,30.67
2019-04-01T05:24:03.975Z,32.00
2019-04-01T05:26:38.213Z,28.60
2019-04-01T05:29:10.759Z,30.50
2019-04-01T05:31:45.543Z,30.87
2019-04-01T05:34:20.038Z,32.20
2019-04-01T05:36:51.402Z,28.30
2019-04-01T05:39:22.795Z,28.87
2019-04-01T05:41:54.269Z,28.17
2019-04-01T05:44:25.643Z,31.53
2019-04-01T05:46:56.925Z,29.63
2019-04-01T05:49:28.407Z,30.50
2019-04-01T05:51:59.771Z,33.70
2019-04-01T05:54:31.120Z,29.93
2019-04-01T05:57:02.635Z,28.67
2019-04-01T05:59:34.111Z,31.47
2019-04-01T06:02:06.324Z,27.53
2019-04-01T06:04:37.975Z,29.37
2019-04-01T06:07:09.404Z,36.83
2019-04-01T06:09:41.456Z,25.53
2019-04-01T06:12:12.865Z,27.50
2019-04-01T06:14:45.728Z,29.17
2019-04-01T06:17:17.095Z,26.73
2019-04-01T06:19:48.468Z,22.67
2019-04-01T06:22:19.984Z,25.23
2019-04-01T06:24:53.091Z,25.27
2019-04-01T06:27:24.993Z,26.50
2019-04-01T06:29:59.260Z,31.33
2019-04-01T06:32:30.018Z,24.73
2019-04-01T06:35:01.597Z,25.87
2019-04-01T06:37:34.101Z,25.23
2019-04-01T06:40:07.252Z,23.53
2019-04-01T06:42:38.757Z,23.73
2019-04-01T06:45:10.511Z,22.80
2019-04-01T06:47:41.998Z,30.60
2019-04-01T06:50:13.529Z,25.83
2019-04-01T06:52:44.948Z,23.03
2019-04-01T06:55:16.395Z,23.93
2019-04-01T06:57:47.812Z,26.20
2019-04-01T07:00:19.501Z,26.60
2019-04-01T07:02:50.935Z,26.53
2019-04-01T07:05:22.314Z,28.07
2019-04-01T07:07:53.741Z,25.27
2019-04-01T07:10:25.282Z,24.97
2019-04-01T07:12:56.726Z,24.93
2019-04-01T07:15:28.167Z,27.00
2019-04-01T07:17:59.407Z,25.47
2019-04-01T07:20:30.850Z,24.65
2019-04-01T07:23:03.162Z,27.77
2019-04-01T07:25:34.484Z,25.23
2019-04-01T07:28:06.010Z,25.23
2019-04-01T07:30:37.699Z,26.65
2019-04-01T07:33:09.014Z,28.03
2019-04-01T07:35:40.537Z,26.23
2019-04-01T07:38:11.907Z,27.35
2019-04-01T07:40:43.321Z,28.32
2019-04-01T07:43:15.142Z,30.57
2019-04-01T07:45:46.795Z,29.65
2019-04-01T07:48:18.289Z,26.50
2019-04-01T07:50:49.917Z,33.73
2019-04-01T07:53:21.241Z,38.58
2019-04-01T07:55:52.472Z,30.32
2019-04-01T07:58:24.012Z,32.88
2019-04-01T08:00:55.653Z,28.40
2019-04-01T08:03:27.163Z,27.67
2019-04-01T08:05:58.570Z,26.62
2019-04-01T08:08:30.200Z,29.80
2019-04-01T08:11:01.574Z,30.55
2019-04-01T08:13:33.034Z,28.15
2019-04-01T08:16:04.414Z,31.30
2019-04-01T08:18:35.851Z,30.35
2019-04-01T08:21:07.292Z,29.67
2019-04-01T08:23:38.820Z,33.00
2019-04-01T08:26:10.121Z,32.78
2019-04-01T08:28:41.462Z,30.40
2019-04-01T08:31:13.461Z,31.70
2019-04-01T08:33:44.985Z,32.38
2019-04-01T08:36:16.304Z,29.30
2019-04-01T08:38:47.775Z,29.57
2019-04-01T08:41:19.231Z,34.88
2019-04-01T08:43:50.666Z,29.07
2019-04-01T08:46:22.071Z,31.52
2019-04-01T08:48:53.528Z,26.52
2019-04-01T08:51:24.925Z,41.35
2019-04-01T08:53:56.282Z,33.67
2019-04-01T08:56:29.539Z,28.07
2019-04-01T08:59:01.086Z,31.65
2019-04-01T09:01:35.340Z,34.63
2019-04-01T09:04:05.742Z,34.73
2019-04-01T09:06:37.001Z,31.30
2019-04-01T09:09:08.578Z,30.45
2019-04-01T09:11:40.455Z,31.27
2019-04-01T09:14:11.827Z,32.03
2019-04-01T09:16:43.611Z,28.83
2019-04-01T09:19:15.109Z,32.33
2019-04-01T09:21:46.394Z,31.55
2019-04-01T09:24:17.773Z,33.42
2019-04-01T09:26:49.097Z,36.05
2019-04-01T09:29:21.638Z,33.02
2019-04-01T09:31:52.963Z,28.42
2019-04-01T09:34:24.343Z,33.05
2019-04-01T09:36:55.666Z,33.42
2019-04-01T09:39:27.043Z,30.20
2019-04-01T09:41:58.359Z,28.67
2019-04-01T09:44:36.602Z,33.33
2019-04-01T09:47:02.697Z,33.88
2019-04-01T09:49:34.074Z,31.48
2019-04-01T09:52:05.589Z,29.52
2019-04-01T09:54:36.896Z,28.73
2019-04-01T09:57:17.427Z,29.72
2019-04-01T09:59:41.283Z,29.67
2019-04-01T10:02:12.671Z,28.67
2019-04-01T10:04:43.982Z,30.37
2019-04-01T10:07:16.346Z,31.12
2019-04-01T10:09:47.643Z,30.70
2019-04-01T10:12:20.068Z,28.42
2019-04-01T10:14:51.503Z,29.95
2019-04-01T10:17:23.822Z,26.17
2019-04-01T10:19:55.280Z,29.80
2019-04-01T10:22:26.612Z,28.75
2019-04-01T10:24:58.125Z,31.73
2019-04-01T10:27:29.554Z,29.87
2019-04-01T10:30:01.158Z,30.10
2019-04-01T10:32:32.647Z,29.02
2019-04-01T10:35:06.225Z,30.65
2019-04-01T10:37:37.594Z,28.52
2019-04-01T10:40:13.577Z,27.07
2019-04-01T10:42:45.016Z,28.25
2019-04-01T10:45:16.598Z,32.65
2019-04-01T10:47:47.988Z,28.87
2019-04-01T10:52:56.963Z,28.57
2019-04-01T10:55:28.302Z,26.05
2019-04-01T10:57:59.888Z,27.98
2019-04-01T11:00:31.409Z,31.27
2019-04-01T11:03:05.926Z,27.62
2019-04-01T11:05:36.105Z,26.50
2019-04-01T11:08:10.932Z,26.50
2019-04-01T11:10:43.401Z,26.27
2019-04-01T11:13:14.763Z,37.20
2019-04-01T11:15:46.092Z,31.00
2019-04-01T11:18:17.550Z,26.52
2019-04-01T11:20:48.799Z,30.35
2019-04-01T11:23:22.442Z,27.58
2019-04-01T11:25:53.700Z,25.70
2019-04-01T11:28:25.150Z,24.80
2019-04-01T11:31:06.247Z,24.12
2019-04-01T11:33:37.752Z,24.37
2019-04-01T11:36:10.513Z,26.97
2019-04-01T11:38:42.012Z,25.43
2019-04-01T11:41:13.522Z,25.10
2019-04-01T11:43:45.013Z,24.12
2019-04-01T11:46:16.426Z,24.80
2019-04-01T11:48:47.736Z,23.90
2019-04-01T11:51:32.017Z,29.15
2019-04-01T11:53:52.342Z,24.45
2019-04-01T11:56:26.507Z,26.70
2019-04-01T11:58:57.122Z,26.27
2019-04-01T12:01:28.693Z,24.35
2019-04-01T12:04:13.212Z,23.77
2019-04-01T12:06:44.654Z,25.97
2019-04-01T12:09:16.059Z,26.37
2019-04-01T12:11:47.517Z,27.65
2019-04-01T12:14:18.838Z,27.82
2019-04-01T12:16:50.236Z,24.10
2019-04-01T12:19:21.491Z,29.87
2019-04-01T12:21:52.892Z,23.98
2019-04-01T12:24:24.233Z,24.47
2019-04-01T12:26:56.348Z,27.02
2019-04-01T12:29:27.878Z,20.70
2019-04-01T12:31:59.911Z,26.80
2019-04-01T12:34:31.803Z,25.17
2019-04-01T12:37:03.669Z,22.95
2019-04-01T12:39:35.061Z,27.35
2019-04-01T12:42:06.792Z,25.75
2019-04-01T12:44:38.110Z,23.52
2019-04-01T12:47:10.384Z,25.02
2019-04-01T12:49:41.734Z,23.73
2019-04-01T12:52:13.107Z,26.73
2019-04-01T12:54:44.717Z,22.20
2019-04-01T12:57:21.060Z,23.75
2019-04-01T12:59:53.362Z,28.15
2019-04-01T13:02:25.037Z,22.58
2019-04-01T13:04:57.116Z,28.95
2019-04-01T13:07:28.495Z,23.20
2019-04-01T13:09:59.743Z,24.12
2019-04-01T13:12:32.336Z,26.97
2019-04-01T13:15:04.049Z,29.37
2019-04-01T13:17:35.544Z,32.88
2019-04-01T13:20:09.942Z,21.93
2019-04-01T13:22:41.371Z,26.87
2019-04-01T13:25:13.869Z,27.48
2019-04-01T13:27:45.254Z,22.58
2019-04-01T13:30:17.146Z,23.22
2019-04-01T13:32:51.148Z,32.10
2019-04-01T13:35:21.550Z,27.42
2019-04-01T13:37:52.990Z,25.35
2019-04-01T13:40:24.385Z,22.35
2019-04-01T13:42:55.788Z,24.65
2019-04-01T13:45:31.373Z,23.62
2019-04-01T13:48:00.188Z,20.75
2019-04-01T13:50:32.575Z,20.62
2019-04-01T13:53:07.202Z,20.12
2019-04-01T13:55:40.386Z,20.00
2019-04-01T13:58:11.790Z,18.85
2019-04-01T14:00:44.227Z,20.35
2019-04-01T14:03:15.865Z,18.10
2019-04-01T14:05:48.218Z,18.15
2019-04-01T14:08:19.601Z,17.98
2019-04-01T14:10:51.079Z,18.75
2019-04-01T14:13:22.458Z,18.85
2019-04-01T14:15:53.767Z,18.85
2019-04-01T14:18:25.089Z,16.82
2019-04-01T14:20:58.118Z,20.75
2019-04-01T14:23:29.471Z,16.67
2019-04-01T14:26:00.797Z,18.55
2019-04-01T14:28:32.161Z,18.65
2019-04-01T14:31:03.463Z,19.52
2019-04-01T14:33:34.827Z,17.65
2019-04-01T14:36:06.270Z,21.97
2019-04-01T14:38:37.595Z,21.77
2019-04-01T14:41:09.092Z,17.42
2019-04-01T14:43:40.637Z,20.55
2019-04-01T14:46:12.003Z,22.52
2019-04-01T14:48:44.990Z,18.20
2019-04-01T14:51:16.302Z,20.30
2019-04-01T14:53:47.653Z,15.83
2019-04-01T14:56:18.982Z,17.45
2019-04-01T14:58:50.252Z,18.70
2019-04-01T15:01:23.249Z,17.42
2019-04-01T15:03:54.568Z,20.12
2019-04-01T15:06:26.908Z,17.67
2019-04-01T15:09:01.086Z,15.20
2019-04-01T15:11:34.014Z,17.75
2019-04-01T15:14:05.515Z,15.25
2019-04-01T15:16:36.895Z,14.50
2019-04-01T15:19:08.405Z,15.10
2019-04-01T15:21:39.794Z,14.55
2019-04-01T15:24:11.249Z,16.05
2019-04-01T15:26:44.283Z,16.87
2019-04-01T15:29:15.647Z,15.95
2019-04-01T15:31:48.658Z,15.63
2019-04-01T15:34:28.876Z,17.05
2019-04-01T15:37:00.419Z,14.87
2019-04-01T15:39:32.745Z,15.60
2019-04-01T15:42:03.990Z,15.40
2019-04-01T15:44:38.048Z,15.95
2019-04-01T15:50:45.962Z,17.67
2019-04-01T15:53:17.977Z,21.40
2019-04-01T15:55:49.745Z,20.12
2019-04-01T15:58:21.364Z,16.87
2019-04-01T16:01:05.025Z,16.20
2019-04-01T16:11:03.695Z,17.57
2019-04-01T16:17:02.960Z,16.25
2019-04-01T16:19:34.724Z,18.70
2019-04-01T16:22:47.380Z,16.97
2019-04-01T16:25:47.491Z,18.30
2019-04-01T16:31:42.785Z,18.98
2019-04-01T16:38:00.581Z,19.37
2019-04-01T16:43:58.560Z,21.90
2019-04-01T16:46:30.438Z,21.42
2019-04-01T16:49:02.158Z,18.12
2019-04-01T16:51:33.815Z,18.98
2019-04-01T16:58:32.370Z,21.60
2019-04-01T17:04:48.368Z,19.10
2019-04-01T17:07:20.456Z,18.35
2019-04-01T17:09:52.158Z,16.90
2019-04-01T17:12:23.733Z,19.75
2019-04-01T17:14:55.416Z,17.48
2019-04-01T17:17:26.945Z,17.92
2019-04-01T17:19:59.629Z,19.00
2019-04-01T17:22:33.450Z,18.55
2019-04-01T19:24:53.281Z,23.60
2019-04-01T19:27:26.242Z,24.52
2019-04-01T19:30:00.644Z,22.98
2019-04-01T19:32:33.299Z,21.73
2019-04-01T19:35:10.964Z,20.12
2019-04-01T19:37:42.596Z,19.15
2019-04-01T19:40:14.746Z,19.90
2019-04-01T19:42:47.347Z,19.30
2019-04-01T19:45:26.339Z,21.55
2019-04-01T19:48:07.723Z,20.43
2019-04-01T19:50:40.543Z,21.90
2019-04-01T19:53:17.799Z,17.05
2019-04-01T19:55:53.798Z,21.40
2019-04-01T19:58:32.916Z,18.80
2019-04-01T20:01:04.623Z,21.65
2019-04-01T20:03:36.100Z,17.85
2019-04-01T20:06:23.184Z,20.70
2019-04-01T20:08:54.822Z,18.42
2019-04-01T20:11:26.527Z,20.20
2019-04-01T20:14:00.755Z,20.15
2019-04-01T20:16:38.572Z,20.70
2019-04-01T20:19:10.483Z,16.48
2019-04-01T20:21:47.332Z,21.00
2019-04-01T20:24:20.093Z,19.57
2019-04-01T20:26:54.915Z,18.70
2019-04-01T20:29:30.227Z,19.42
2019-04-01T20:32:01.378Z,17.95
2019-04-01T20:34:40.707Z,18.12
2019-04-01T20:37:19.226Z,17.73
2019-04-01T20:39:51.127Z,17.73
2019-04-01T20:42:24.422Z,20.43
2019-04-01T20:45:10.560Z,19.60
2019-04-01T20:47:50.158Z,20.52
2019-04-01T20:50:21.758Z,19.77
2019-04-01T20:52:58.051Z,18.98
2019-04-01T20:55:47.590Z,18.87
2019-04-01T20:58:18.163Z,15.98
2019-04-01T21:00:57.044Z,20.68
2019-04-01T21:03:35.652Z,19.05
2019-04-01T21:06:13.735Z,20.55
2019-04-01T21:08:51.124Z,20.80
2019-04-01T21:11:25.982Z,18.82
2019-04-01T21:14:03.528Z,17.02
2019-04-01T21:16:53.576Z,21.37
2019-04-01T21:19:28.936Z,19.30
2019-04-01T21:22:03.414Z,20.00
2019-04-01T21:24:38.151Z,20.00
2019-04-01T21:27:09.695Z,21.50
2019-04-01T21:29:42.606Z,19.15
2019-04-01T21:32:16.906Z,21.35
2019-04-01T21:34:52.575Z,21.23
2019-04-01T21:37:35.187Z,20.60
2019-04-01T21:40:15.799Z,19.45
2019-04-01T21:42:51.495Z,16.87
2019-04-01T21:45:24.618Z,20.25
2019-04-01T21:47:57.792Z,18.52
2019-04-01T21:50:31.321Z,19.85
2019-04-01T21:53:08.606Z,18.80
2019-04-01T21:55:40.209Z,19.17
2019-04-01T21:58:15.802Z,17.45
2019-04-01T22:00:56.568Z,19.35
2019-04-01T22:03:30.022Z,18.92
2019-04-01T22:06:01.626Z,18.85
2019-04-01T22:08:35.209Z,18.70
2019-04-01T22:11:11.028Z,19.95
2019-04-01T22:13:56.500Z,22.15
2019-04-01T22:16:43.653Z,16.35
2019-04-01T22:19:12.268Z,15.93
2019-04-01T22:21:47.098Z,18.10
2019-04-01T22:24:26.740Z,18.12
2019-04-01T22:26:59.859Z,18.10
2019-04-01T22:29:48.922Z,16.52
2019-04-01T22:32:27.483Z,21.05
2019-04-01T22:35:05.214Z,21.02
2019-04-01T22:37:54.388Z,18.42
2019-04-01T22:40:17.687Z,19.27
2019-04-01T22:42:52.393Z,21.00
2019-04-01T22:45:33.974Z,19.02
2019-04-01T22:48:14.697Z,21.23
2019-04-01T22:50:46.228Z,18.80
2019-04-01T22:53:19.633Z,19.15
2019-04-01T22:55:51.114Z,19.90
2019-04-01T22:58:27.379Z,19.23
2019-04-01T23:01:06.556Z,17.23
2019-04-01T23:03:40.200Z,18.10
2019-04-01T23:06:19.136Z,20.00
2019-04-01T23:08:53.284Z,21.77
2019-04-01T23:11:26.567Z,21.62
2019-04-01T23:14:08.512Z,18.10
2019-04-01T23:16:56.625Z,21.12
2019-04-01T23:19:34.501Z,20.88
2019-04-01T23:22:07.950Z,21.10
2019-04-01T23:24:44.740Z,22.42
2019-04-01T23:27:24.307Z,20.35
2019-04-01T23:29:52.668Z,20.20
2019-04-01T23:32:27.443Z,18.60
2019-04-01T23:34:59.863Z,20.80
2019-04-01T23:37:34.744Z,20.37
2019-04-01T23:40:09.580Z,19.48
2019-04-01T23:42:50.658Z,18.27
2019-04-01T23:45:25.814Z,17.37
2019-04-01T23:48:00.885Z,18.15
2019-04-01T23:50:41.046Z,18.48
2019-04-01T23:53:19.984Z,19.90
2019-04-01T23:55:58.225Z,21.48
2019-04-01T23:58:30.858Z,18.55
